Time;durP1;ratioP1;P1;durP2;ratioP2;P2;SDS_P1;SDS_P2;PMS_P1;PMS_P2;Temp;Humidity;BMP_temperature;BMP_pressure;BME280_temperature;BME280_humidity;BME280_pressure;Samples;Min_cycle;Max_cycle;Signal;HPM_P1;HPM_P2
2022/01/12 00:00:52;;;;;;;13.90;6.78;;;;;;;-2.65;100.00;94906.22;5132958;27;20027;-69
2022/01/12 00:03:18;;;;;;;16.42;7.38;;;;;;;-2.64;100.00;94903.16;5134479;27;20031;-68
2022/01/12 00:05:43;;;;;;;14.23;6.95;;;;;;;-2.86;100.00;94896.47;5134078;27;20416;-68
2022/01/12 00:08:09;;;;;;;13.63;7.30;;;;;;;-2.93;100.00;94898.06;5134203;27;20474;-68
2022/01/12 00:10:35;;;;;;;12.95;7.00;;;;;;;-2.90;100.00;94902.56;5133984;27;20015;-68
2022/01/12 00:13:00;;;;;;;13.85;7.38;;;;;;;-2.91;100.00;94902.97;5134439;27;20027;-69
2022/01/12 00:15:26;;;;;;;15.02;7.28;;;;;;;-2.84;100.00;94910.16;5133884;27;20084;-69
2022/01/12 00:17:52;;;;;;;14.43;7.10;;;;;;;-2.80;100.00;94918.84;5133999;27;20023;-69
2022/01/12 00:20:17;;;;;;;13.43;6.88;;;;;;;-2.84;100.00;94926.84;5134110;27;20035;-69
2022/01/12 00:22:43;;;;;;;13.63;7.43;;;;;;;-3.11;100.00;94908.78;5133846;27;20023;-68
2022/01/12 00:25:34;;;;;;;13.73;7.70;;;;;;;-2.82;100.00;94919.25;5133113;27;20425;-68
2022/01/12 00:33:23;;;;;;;15.20;7.95;;;;;;;-2.74;100.00;94934.00;5134014;28;20474;-68
2022/01/12 00:35:55;;;;;;;15.65;7.30;;;;;;;-2.67;100.00;94925.22;5133931;27;20015;-68
2022/01/12 00:38:22;;;;;;;12.25;5.97;;;;;;;-2.86;100.00;94931.78;5134144;27;20031;-68
2022/01/12 00:40:53;;;;;;;14.38;6.90;;;;;;;-2.95;100.00;94934.84;5134487;27;20126;-69
2022/01/12 00:43:21;;;;;;;12.90;6.60;;;;;;;-3.24;100.00;94937.66;5133788;27;20134;-69
2022/01/12 00:45:48;;;;;;;13.20;6.93;;;;;;;-2.92;100.00;94936.00;5134113;27;20058;-69
2022/01/12 00:48:14;;;;;;;13.45;6.38;;;;;;;-2.83;100.00;94932.91;5133609;27;20106;-69
2022/01/12 00:50:40;;;;;;;12.60;6.50;;;;;;;-2.77;100.00;94926.03;5132689;28;20023;-69
2022/01/12 00:53:07;;;;;;;13.90;7.38;;;;;;;-2.91;100.00;94924.97;5133639;27;20115;-69
2022/01/12 00:55:33;;;;;;;14.40;6.82;;;;;;;-2.66;100.00;94929.38;5133642;27;20122;-68
2022/01/12 00:57:59;;;;;;;14.25;6.65;;;;;;;-2.73;100.00;94922.22;5133538;27;20039;-69
2022/01/12 01:00:26;;;;;;;14.55;7.50;;;;;;;-2.57;100.00;94927.03;5133463;27;20024;-67
2022/01/12 01:02:53;;;;;;;13.32;6.32;;;;;;;-3.30;100.00;94920.63;5133937;27;20499;-69
2022/01/12 01:05:22;;;;;;;12.48;6.65;;;;;;;-3.13;100.00;94926.25;5133694;27;20034;-68
2022/01/12 01:07:48;;;;;;;14.48;6.95;;;;;;;-2.96;100.00;94922.75;5136061;27;20027;-69
2022/01/12 01:10:21;;;;;;;13.30;6.80;;;;;;;-3.32;100.00;94925.56;5136142;27;20027;-68
2022/01/12 01:12:47;;;;;;;18.40;9.30;;;;;;;-2.98;100.00;94919.72;5134419;27;20023;-68
2022/01/12 01:15:15;;;;;;;14.38;7.85;;;;;;;-3.19;100.00;94923.25;5134838;27;20031;-68
2022/01/12 01:25:43;;;;;;;16.00;8.63;;;;;;;-3.08;100.00;94923.94;5134001;28;20111;-67
2022/01/12 01:28:10;;;;;;;15.30;7.13;;;;;;;-2.90;100.00;94931.81;5132143;28;20420;-68
2022/01/12 01:30:39;;;;;;;17.70;9.30;;;;;;;-2.98;100.00;94927.69;5133160;27;20027;-68
2022/01/12 01:33:07;;;;;;;16.42;7.93;;;;;;;-2.90;100.00;94934.47;5133421;27;20027;-68
2022/01/12 01:35:35;;;;;;;15.02;7.57;;;;;;;-2.66;100.00;94928.63;5133077;27;20034;-68
2022/01/12 01:38:02;;;;;;;13.07;7.38;;;;;;;-2.77;100.00;94926.03;5133871;27;20088;-68
2022/01/12 01:40:29;;;;;;;15.00;7.63;;;;;;;-3.05;100.00;94922.41;5136753;27;20472;-68
2022/01/12 01:53:44;;;;;;;10.55;5.72;;;;;;;-3.06;100.00;94932.25;5137098;27;20045;-68
2022/01/12 01:56:10;;;;;;;10.35;5.43;;;;;;;-2.92;100.00;94936.75;5136484;27;20027;-68
2022/01/12 01:58:36;;;;;;;10.45;5.43;;;;;;;-3.10;100.00;94939.50;5136652;27;20083;-68
2022/01/12 02:01:03;;;;;;;12.88;6.47;;;;;;;-2.87;100.00;94938.25;5136319;27;20035;-67
2022/01/12 02:03:30;;;;;;;11.65;5.72;;;;;;;-2.97;100.00;94939.81;5136250;27;20473;-68
2022/01/12 02:05:58;;;;;;;10.85;5.60;;;;;;;-2.95;100.00;94942.84;5136326;27;20030;-68
2022/01/12 02:08:24;;;;;;;12.05;6.63;;;;;;;-2.50;100.00;94949.41;5136700;27;20031;-68
2022/01/12 02:10:57;;;;;;;13.35;6.40;;;;;;;-2.82;100.00;94956.44;5136158;27;20015;-68
2022/01/12 02:13:24;;;;;;;11.07;5.93;;;;;;;-2.81;100.00;94946.56;5136666;27;20051;-67
2022/01/12 02:15:50;;;;;;;11.15;6.22;;;;;;;-2.82;100.00;94950.34;5136142;27;20459;-68
2022/01/12 02:40:29;;;;;;;16.10;6.07;;;;;;;-3.41;100.00;94973.00;5135562;27;20031;-68
2022/01/12 02:53:38;;;;;;;10.90;5.47;;;;;;;-3.17;100.00;94989.25;5091993;28;20036;-68
2022/01/12 02:54:20;;;;;;;11.88;5.63;;;;;;;-3.31;100.00;95000.66;5092636;28;20054;-69
2022/01/12 02:56:47;;;;;;;13.15;6.22;;;;;;;-3.29;100.00;94995.72;5120193;27;20404;-69
2022/01/12 02:59:13;;;;;;;14.25;6.43;;;;;;;-3.23;100.00;95002.91;5135171;27;20031;-68
2022/01/12 03:04:38;;;;;;;11.77;6.13;;;;;;;-3.28;100.00;95005.97;5100680;27;20035;-67
2022/01/12 03:07:10;;;;;;;11.45;6.05;;;;;;;-3.13;100.00;95024.50;5135085;27;20412;-68
2022/01/12 03:09:35;;;;;;;11.50;6.47;;;;;;;-3.08;100.00;95013.47;5135484;27;20023;-69
2022/01/12 03:12:01;;;;;;;10.43;5.75;;;;;;;-3.29;100.00;95017.72;5135042;27;20386;-68
2022/01/12 03:14:27;;;;;;;12.27;6.40;;;;;;;-2.87;100.00;95012.63;5135172;27;20472;-69
2022/01/12 03:16:52;;;;;;;10.10;5.85;;;;;;;-3.09;100.00;95027.91;5134954;27;20035;-69
2022/01/12 03:19:17;;;;;;;13.88;5.75;;;;;;;-3.10;100.00;95029.03;5135323;27;20031;-68
2022/01/12 03:21:43;;;;;;;15.00;6.85;;;;;;;-3.34;100.00;95022.66;5135093;27;20030;-68
2022/01/12 03:24:08;;;;;;;12.07;5.68;;;;;;;-3.27;100.00;95022.66;5134755;27;20026;-68
2022/01/12 03:26:35;;;;;;;11.55;5.57;;;;;;;-3.08;100.00;95032.06;5135205;27;20127;-68
2022/01/12 03:29:02;;;;;;;11.90;6.15;;;;;;;-2.98;100.00;95031.28;5134878;27;20019;-67
2022/01/12 03:31:33;;;;;;;11.68;5.90;;;;;;;-3.32;100.00;95031.00;5133647;27;20177;-68
2022/01/12 03:34:06;;;;;;;12.98;6.18;;;;;;;-3.17;100.00;95034.38;5134811;27;20019;-68
2022/01/12 03:39:08;;;;;;;11.90;5.82;;;;;;;-3.51;100.00;95029.53;5134418;27;20026;-67
2022/01/12 03:41:35;;;;;;;13.80;6.40;;;;;;;-3.79;100.00;95044.34;5134306;27;20019;-67
2022/01/12 03:44:03;;;;;;;10.10;5.45;;;;;;;-3.72;100.00;95039.03;5133073;27;20130;-67
2022/01/12 03:46:38;;;;;;;11.05;6.47;;;;;;;-3.66;100.00;95042.06;5134302;27;20456;-68
2022/01/12 03:49:04;;;;;;;13.00;6.07;;;;;;;-3.45;100.00;95043.91;5134543;27;20371;-67
2022/01/12 03:51:30;;;;;;;11.15;5.85;;;;;;;-3.16;100.00;95051.81;5134547;27;20015;-67
2022/01/12 03:53:56;;;;;;;11.05;6.00;;;;;;;-3.34;100.00;95052.66;5134803;27;20424;-67
2022/01/12 03:56:21;;;;;;;12.18;6.20;;;;;;;-3.21;100.00;95058.28;5134251;27;20092;-67
2022/01/12 03:58:47;;;;;;;10.77;5.60;;;;;;;-3.20;100.00;95067.00;5133159;27;20466;-68
2022/01/12 04:01:12;;;;;;;12.70;6.85;;;;;;;-3.11;100.00;95062.81;5134301;27;20071;-68
2022/01/12 04:03:42;;;;;;;13.10;6.57;;;;;;;-2.90;100.00;95077.94;5134122;27;20459;-67
2022/01/12 04:08:52;;;;;;;13.32;6.72;;;;;;;-2.85;99.44;95078.66;5134318;27;20033;-68
2022/01/12 04:11:18;;;;;;;11.20;6.20;;;;;;;-3.38;100.00;95075.78;5134204;27;20098;-68
2022/01/12 04:13:46;;;;;;;12.23;6.55;;;;;;;-3.08;100.00;95088.63;5133974;27;20031;-68
2022/01/12 04:16:13;;;;;;;13.40;6.60;;;;;;;-3.26;100.00;95088.66;5133956;27;20102;-68
2022/01/12 04:18:39;;;;;;;12.27;6.15;;;;;;;-3.21;99.69;95100.03;5134244;27;20514;-69
2022/01/12 04:21:07;;;;;;;11.60;5.88;;;;;;;-3.11;99.14;95094.69;5133777;27;20023;-69
2022/01/12 04:23:35;;;;;;;12.80;6.57;;;;;;;-3.03;99.56;95103.38;5133932;27;20015;-68
2022/01/12 04:26:04;;;;;;;13.50;7.38;;;;;;;-3.26;100.00;95104.59;5133786;27;20023;-69
2022/01/12 04:28:30;;;;;;;13.60;6.88;;;;;;;-3.51;100.00;95098.53;5132751;28;20044;-68
2022/01/12 04:30:57;;;;;;;14.73;7.32;;;;;;;-3.74;100.00;95100.47;5133724;27;20080;-69
2022/01/12 04:33:23;;;;;;;13.07;6.50;;;;;;;-3.83;100.00;95104.59;5133631;27;20507;-68
2022/01/12 04:35:54;;;;;;;13.32;6.25;;;;;;;-3.53;100.00;95111.44;5133666;27;20019;-68
2022/01/12 04:38:30;;;;;;;11.55;6.60;;;;;;;-3.18;100.00;95117.84;5133984;27;20023;-68
2022/01/12 04:40:56;;;;;;;14.43;7.00;;;;;;;-3.60;100.00;95102.34;5133482;27;20118;-68
2022/01/12 04:43:23;;;;;;;15.05;7.40;;;;;;;-3.52;100.00;95111.03;5132428;28;20070;-68
2022/01/12 04:50:40;;;;;;;12.40;5.47;;;;;;;-3.81;100.00;95112.94;5133534;27;20023;-68
2022/01/12 04:53:07;;;;;;;13.18;5.63;;;;;;;-3.67;100.00;95112.94;5133430;27;20416;-68
2022/01/12 04:55:33;;;;;;;9.82;5.78;;;;;;;-3.63;100.00;95113.69;5133502;27;20046;-68
2022/01/12 04:57:58;;;;;;;12.18;6.03;;;;;;;-3.38;99.95;95128.09;5133457;27;20452;-67
2022/01/12 05:00:25;;;;;;;12.13;5.95;;;;;;;-3.52;100.00;95128.88;5133360;27;20027;-67
2022/01/12 05:13:35;;;;;;;12.60;5.50;;;;;;;-3.86;100.00;95142.50;5135481;27;20046;-67
2022/01/12 05:16:01;;;;;;;12.25;6.00;;;;;;;-3.85;100.00;95151.97;5137781;27;20474;-68
2022/01/12 05:18:30;;;;;;;11.13;6.18;;;;;;;-3.36;100.00;95158.44;5137285;27;20027;-68
2022/01/12 05:20:56;;;;;;;9.30;5.43;;;;;;;-3.49;99.29;95158.09;5137281;27;20386;-67
2022/01/12 05:23:22;;;;;;;10.50;5.30;;;;;;;-3.46;100.00;95153.91;5135921;27;20022;-67
2022/01/12 05:25:48;;;;;;;9.82;5.50;;;;;;;-3.78;100.00;95165.25;5136274;27;20019;-67
2022/01/12 05:28:14;;;;;;;10.48;5.60;;;;;;;-3.75;100.00;95167.16;5136946;27;20027;-68
2022/01/12 05:30:40;;;;;;;11.15;5.65;;;;;;;-3.47;99.94;95173.63;5136776;27;20075;-67
2022/01/12 05:33:06;;;;;;;10.93;5.70;;;;;;;-3.68;99.92;95175.13;5136847;27;20362;-68
2022/01/12 05:35:33;;;;;;;10.32;5.60;;;;;;;-3.62;100.00;95173.59;5136925;27;20023;-69
2022/01/12 05:38:00;;;;;;;9.98;5.72;;;;;;;-3.20;98.40;95189.94;5136799;27;20379;-68
2022/01/12 05:40:26;;;;;;;12.77;6.35;;;;;;;-3.25;97.08;95180.44;5136984;27;20504;-69
2022/01/12 05:42:53;;;;;;;10.82;6.00;;;;;;;-3.20;96.35;95191.81;5137109;27;20019;-68
2022/01/12 05:45:20;;;;;;;14.00;6.53;;;;;;;-3.20;97.38;95186.50;5136454;27;20039;-67
2022/01/12 05:50:16;;;;;;;13.75;7.00;;;;;;;-3.15;97.36;95194.09;5136568;27;20007;-67
2022/01/12 05:52:42;;;;;;;13.65;6.28;;;;;;;-3.36;98.22;95185.00;5136798;27;20102;-68
2022/01/12 05:55:10;;;;;;;12.85;6.15;;;;;;;-3.59;98.66;95194.06;5135479;27;20110;-67
2022/01/12 05:57:36;;;;;;;12.27;6.10;;;;;;;-3.66;98.62;95199.38;5136417;27;20019;-68
2022/01/12 06:00:07;;;;;;;14.13;7.10;;;;;;;-3.70;99.56;95203.94;5136532;27;20371;-68
2022/01/12 06:02:32;;;;;;;13.57;7.00;;;;;;;-3.35;98.72;95207.75;5136770;27;20043;-67
2022/01/12 06:04:58;;;;;;;16.13;7.22;;;;;;;-3.64;98.81;95206.97;5136497;27;20048;-68
2022/01/12 06:07:24;;;;;;;17.92;8.48;;;;;;;-3.57;99.55;95218.34;5136145;27;20079;-69
2022/01/12 06:09:49;;;;;;;18.35;7.22;;;;;;;-3.48;100.00;95214.56;5136182;27;20035;-68
2022/01/12 06:12:14;;;;;;;12.77;6.40;;;;;;;-3.13;95.14;95229.00;5136254;27;20452;-68
2022/01/12 06:14:41;;;;;;;16.00;7.85;;;;;;;-2.97;94.25;95232.03;5135096;27;20067;-69
2022/01/12 06:17:09;;;;;;;12.88;6.60;;;;;;;-3.35;95.48;95231.66;5136001;27;20023;-68
2022/01/12 06:19:34;;;;;;;14.13;7.03;;;;;;;-3.19;95.02;95238.47;5135847;27;20023;-68
2022/01/12 06:22:00;;;;;;;13.35;6.32;;;;;;;-3.53;95.96;95236.94;5135130;27;20034;-68
2022/01/12 06:24:25;;;;;;;14.88;7.57;;;;;;;-3.27;94.96;95246.47;5133958;27;20049;-68
2022/01/12 06:26:52;;;;;;;15.30;7.40;;;;;;;-2.96;93.71;95249.50;5135735;27;20042;-69
2022/01/12 06:31:49;;;;;;;14.27;6.85;;;;;;;-3.04;94.99;95253.31;5136218;27;20370;-68
2022/01/12 06:34:15;;;;;;;14.40;7.47;;;;;;;-2.86;93.53;95253.28;5135477;27;20019;-67
2022/01/12 06:36:41;;;;;;;15.80;6.97;;;;;;;-2.72;91.53;95263.88;5135719;27;20079;-68
2022/01/12 06:39:10;;;;;;;14.05;6.45;;;;;;;-2.56;92.30;95270.72;5135530;27;20084;-68
2022/01/12 06:41:37;;;;;;;10.68;5.82;;;;;;;-2.47;91.86;95270.31;5135455;27;20436;-67
2022/01/12 06:44:05;;;;;;;11.18;5.68;;;;;;;-3.05;94.83;95273.03;5135462;27;20122;-67
2022/01/12 06:46:31;;;;;;;10.98;6.05;;;;;;;-2.79;94.33;95271.88;5134373;27;20065;-69
2022/01/12 06:48:57;;;;;;;8.63;5.25;;;;;;;-2.68;90.71;95279.09;5135754;27;20051;-69
2022/01/12 06:51:22;;;;;;;11.27;6.13;;;;;;;-3.13;92.58;95282.13;5135283;27;20011;-69
2022/01/12 06:53:48;;;;;;;10.05;5.15;;;;;;;-2.92;91.79;95287.47;5135322;27;20015;-69
2022/01/12 06:56:17;;;;;;;11.65;6.13;;;;;;;-3.07;91.98;95286.69;5135587;27;20141;-69
2022/01/12 06:58:43;;;;;;;11.43;5.63;;;;;;;-3.30;94.31;95287.06;5135638;27;20019;-71
2022/01/12 07:01:08;;;;;;;14.52;5.65;;;;;;;-2.96;92.12;95283.28;5134422;27;20395;-68
2022/01/12 07:03:34;;;;;;;11.60;5.90;;;;;;;-3.04;93.71;95297.69;5134137;27;20023;-68
2022/01/12 07:05:59;;;;;;;13.68;6.50;;;;;;;-2.94;93.27;95295.03;5135088;27;20027;-68
2022/01/12 07:08:25;;;;;;;11.10;6.22;;;;;;;-2.93;92.18;95293.91;5135158;27;20023;-68
2022/01/12 07:10:50;;;;;;;14.85;7.05;;;;;;;-2.95;92.91;95303.38;5135134;27;20473;-67
2022/01/12 07:13:16;;;;;;;13.82;6.30;;;;;;;-3.58;93.80;95293.81;5134986;27;20380;-68
2022/01/12 07:15:42;;;;;;;11.02;6.15;;;;;;;-3.36;94.71;95299.16;5135085;27;20019;-68
2022/01/12 07:18:08;;;;;;;13.23;6.50;;;;;;;-3.12;94.29;95299.56;5134879;27;20068;-70
2022/01/12 07:20:34;;;;;;;13.20;6.75;;;;;;;-2.85;93.32;95301.88;5134917;27;20027;-70
2022/01/12 07:23:00;;;;;;;14.15;6.38;;;;;;;-2.95;93.47;95312.09;5134710;27;20090;-69
2022/01/12 07:25:25;;;;;;;14.85;7.28;;;;;;;-3.23;93.95;95310.94;5135142;27;20106;-68
2022/01/12 07:27:51;;;;;;;12.27;6.00;;;;;;;-3.09;92.70;95320.09;5134807;27;20066;-68
2022/01/12 07:30:19;;;;;;;11.27;6.65;;;;;;;-2.76;92.33;95320.84;5134465;27;20022;-68
2022/01/12 07:32:44;;;;;;;12.23;6.43;;;;;;;-2.81;91.23;95319.34;5134453;27;20098;-67
2022/01/12 07:35:09;;;;;;;14.48;7.00;;;;;;;-2.80;92.88;95322.75;5134553;27;20047;-68
2022/01/12 07:37:35;;;;;;;15.07;7.25;;;;;;;-2.53;91.68;95327.69;5133415;27;20387;-68
2022/01/12 07:40:01;;;;;;;12.88;6.75;;;;;;;-2.49;91.06;95326.53;5134696;27;20034;-67
2022/01/12 07:42:26;;;;;;;17.38;6.85;;;;;;;-2.94;92.00;95321.59;5134685;27;20054;-68
2022/01/12 07:45:00;;;;;;;12.60;7.03;;;;;;;-3.15;92.81;95330.31;5134301;27;20043;-67
2022/01/12 07:47:30;;;;;;;14.18;6.20;;;;;;;-3.24;93.23;95327.25;5133265;27;20029;-67
2022/01/12 07:49:57;;;;;;;11.35;5.90;;;;;;;-2.99;93.20;95337.91;5134674;27;20114;-68
2022/01/12 07:52:23;;;;;;;13.05;6.05;;;;;;;-3.14;91.84;95328.41;5133127;27;20023;-67
2022/01/12 07:54:48;;;;;;;11.50;6.05;;;;;;;-3.15;93.47;95332.19;5134354;27;20049;-68
2022/01/12 07:57:14;;;;;;;13.38;6.43;;;;;;;-3.21;92.69;95339.03;5134151;27;20035;-68
2022/01/12 07:59:40;;;;;;;15.40;6.68;;;;;;;-2.71;90.46;95349.72;5134322;27;20344;-68
2022/01/12 08:02:07;;;;;;;10.73;5.63;;;;;;;-2.67;89.03;95361.13;5134078;27;20030;-69
2022/01/12 08:04:32;;;;;;;11.57;6.35;;;;;;;-2.71;88.49;95355.03;5134009;27;20022;-69
2022/01/12 08:06:58;;;;;;;13.88;6.10;;;;;;;-2.65;89.76;95363.38;5134110;27;20042;-68
2022/01/12 08:09:23;;;;;;;11.10;5.97;;;;;;;-2.58;88.81;95366.03;5133983;27;20498;-68
2022/01/12 08:11:49;;;;;;;11.98;6.18;;;;;;;-2.34;88.74;95366.44;5134020;27;20082;-68
2022/01/12 08:14:15;;;;;;;9.45;5.85;;;;;;;-2.79;87.40;95370.22;5133945;27;20015;-68
2022/01/12 08:16:43;;;;;;;14.85;7.38;;;;;;;-2.55;89.58;95378.56;5133769;27;20015;-68
2022/01/12 08:19:09;;;;;;;12.18;6.10;;;;;;;-2.41;87.48;95377.81;5134266;27;20035;-68
2022/01/12 08:21:35;;;;;;;12.27;7.03;;;;;;;-2.60;90.09;95371.72;5133667;27;20027;-70
2022/01/12 08:24:00;;;;;;;11.05;5.72;;;;;;;-2.36;86.04;95374.75;5133969;27;20060;-68
2022/01/12 08:26:26;;;;;;;9.60;5.18;;;;;;;-2.12;85.03;95373.22;5133725;27;20027;-68
2022/01/12 08:28:52;;;;;;;11.25;5.40;;;;;;;-2.44;85.61;95374.03;5133769;27;20432;-67
2022/01/12 08:31:20;;;;;;;8.88;4.82;;;;;;;-2.98;86.70;95384.59;5134307;27;20018;-68
2022/01/12 08:33:46;;;;;;;8.80;4.28;;;;;;;-2.78;85.39;95386.91;5134073;27;20029;-68
2022/01/12 08:36:11;;;;;;;8.05;4.38;;;;;;;-2.72;84.72;95385.41;5133810;27;20082;-68
2022/01/12 08:38:37;;;;;;;9.35;4.47;;;;;;;-3.09;85.95;95384.59;5133485;27;20094;-68
2022/01/12 08:41:03;;;;;;;8.98;4.20;;;;;;;-2.69;85.55;95389.22;5133679;27;20038;-68
2022/01/12 08:43:28;;;;;;;10.80;4.55;;;;;;;-2.90;86.22;95380.06;5133253;27;20491;-68
2022/01/12 08:45:54;;;;;;;9.02;4.65;;;;;;;-2.49;85.53;95389.59;5133880;27;20049;-68
2022/01/12 08:48:20;;;;;;;9.52;4.78;;;;;;;-2.43;84.50;95385.41;5134690;27;20023;-68
2022/01/12 08:50:46;;;;;;;8.60;4.68;;;;;;;-2.37;85.55;95389.22;5137704;27;20026;-68
2022/01/12 08:53:12;;;;;;;9.32;4.18;;;;;;;-2.91;85.98;95383.84;5137701;27;20106;-68
2022/01/12 08:55:39;;;;;;;12.82;4.38;;;;;;;-2.81;86.68;95395.63;5137576;27;20416;-68
2022/01/12 08:58:04;;;;;;;10.55;4.55;;;;;;;-2.25;85.42;95396.81;5136538;27;20113;-68
2022/01/12 09:00:30;;;;;;;9.85;4.60;;;;;;;-2.63;85.06;95393.78;5136936;27;20164;-68
2022/01/12 09:02:55;;;;;;;8.55;4.60;;;;;;;-2.94;86.00;95390.69;5137454;27;20023;-68
2022/01/12 09:05:21;;;;;;;9.63;5.13;;;;;;;-2.40;84.44;95389.97;5136475;27;20038;-67
2022/01/12 09:07:46;;;;;;;9.73;5.53;;;;;;;-2.50;84.77;95388.06;5137974;27;20038;-67
2022/01/12 09:10:12;;;;;;;9.88;4.90;;;;;;;-2.56;85.43;95396.41;5137654;27;20099;-67
2022/01/12 09:12:39;;;;;;;9.27;4.90;;;;;;;-2.38;85.54;95387.69;5137896;27;20019;-67
2022/01/12 09:15:06;;;;;;;7.35;4.82;;;;;;;-2.54;83.50;95388.06;5137338;27;20370;-67
2022/01/12 09:17:32;;;;;;;8.13;4.70;;;;;;;-2.67;84.86;95387.69;5137609;27;20027;-67
2022/01/12 09:19:57;;;;;;;9.57;4.53;;;;;;;-2.92;85.51;95385.75;5136099;27;20027;-69
2022/01/12 09:22:23;;;;;;;10.80;4.93;;;;;;;-2.69;86.03;95384.63;5136151;27;20027;-68
2022/01/12 09:24:49;;;;;;;7.80;4.75;;;;;;;-2.29;83.81;95385.41;5137070;27;20029;-68
2022/01/12 09:27:16;;;;;;;7.65;4.30;;;;;;;-2.54;83.93;95382.75;5137237;27;20069;-68
2022/01/12 09:29:43;;;;;;;7.68;4.07;;;;;;;-2.26;83.08;95378.56;5136866;27;20452;-68
2022/01/12 09:32:08;;;;;;;8.45;4.60;;;;;;;-2.25;83.42;95380.06;5135891;27;20027;-68
2022/01/12 09:34:35;;;;;;;7.45;4.47;;;;;;;-2.23;83.02;95380.47;5136886;27;20106;-68
2022/01/12 09:37:00;;;;;;;8.57;4.35;;;;;;;-2.12;81.91;95380.44;5136162;27;20366;-68
2022/01/12 09:39:26;;;;;;;7.97;4.18;;;;;;;-2.08;83.37;95381.22;5136714;27;20075;-68
2022/01/12 09:41:51;;;;;;;6.88;4.05;;;;;;;-2.53;84.47;95386.19;5135913;27;20106;-68
2022/01/12 09:44:18;;;;;;;6.25;4.00;;;;;;;-2.17;83.90;95386.16;5136724;27;20050;-68
2022/01/12 09:46:43;;;;;;;8.20;4.72;;;;;;;-1.77;80.90;95392.16;5136848;27;20020;-68
2022/01/12 09:49:09;;;;;;;10.00;3.90;;;;;;;-2.24;82.40;95386.91;5136625;27;20030;-68
2022/01/12 09:51:34;;;;;;;5.68;3.60;;;;;;;-1.97;80.58;95383.84;5136687;27;20015;-70
2022/01/12 09:54:00;;;;;;;8.65;4.30;;;;;;;-2.15;79.89;95379.31;5137134;27;20050;-68
2022/01/12 09:56:30;;;;;;;7.80;4.25;;;;;;;-2.26;81.29;95375.91;5136974;27;20019;-68
2022/01/12 09:58:59;;;;;;;7.50;3.95;;;;;;;-1.86;80.15;95384.56;5136444;27;20023;-69
2022/01/12 10:01:36;;;;;;;6.35;3.90;;;;;;;-1.70;79.75;95389.47;5136268;27;20062;-69
2022/01/12 10:04:17;;;;;;;7.25;4.78;;;;;;;-1.57;80.27;95384.50;5136383;27;20023;-69
2022/01/12 10:06:57;;;;;;;6.03;3.55;;;;;;;-1.52;77.69;95389.41;5136910;27;20015;-69
2022/01/12 10:09:34;;;;;;;6.03;3.50;;;;;;;-1.57;75.96;95384.50;5136335;27;20111;-69
2022/01/12 10:12:05;;;;;;;6.57;3.83;;;;;;;-1.64;77.57;95385.25;5136381;27;20023;-69
2022/01/12 10:14:49;;;;;;;10.18;4.10;;;;;;;-1.99;77.64;95386.91;5136040;27;20047;-69
2022/01/12 10:17:18;;;;;;;8.75;3.53;;;;;;;0.22;100.00;95388.97;5134957;27;20114;-66
2022/01/12 10:19:43;;;;;;;5.70;3.90;;;;;;;0.40;77.12;95397.56;5135848;27;20467;-71
2022/01/12 10:22:16;;;;;;;6.38;3.08;;;;;;;-1.16;65.79;95391.16;5136008;27;20164;-69
2022/01/12 10:24:46;;;;;;;5.45;3.50;;;;;;;-1.48;65.38;95392.81;5135926;27;20087;-70
2022/01/12 10:27:15;;;;;;;6.65;3.72;;;;;;;-1.79;66.71;95394.44;5135711;27;20026;-69
2022/01/12 10:29:42;;;;;;;5.55;3.58;;;;;;;-1.65;66.28;95389.09;5135691;27;20023;-69
2022/01/12 10:32:08;;;;;;;6.82;3.60;;;;;;;-2.05;67.23;95380.44;5135800;27;20478;-69
2022/01/12 10:34:45;;;;;;;7.55;3.92;;;;;;;-2.16;68.27;95377.78;5135669;27;20040;-69
2022/01/12 10:37:13;;;;;;;5.55;3.85;;;;;;;-2.22;68.44;95382.75;5134823;27;20034;-70
2022/01/12 10:39:44;;;;;;;7.68;4.15;;;;;;;-2.17;67.86;95381.59;5135515;27;20015;-72
2022/01/12 10:42:13;;;;;;;9.07;4.15;;;;;;;-1.96;66.97;95377.38;5135990;27;20034;-69
2022/01/12 10:44:42;;;;;;;6.78;3.65;;;;;;;-1.95;66.88;95370.91;5135490;27;20039;-67
2022/01/12 10:47:18;;;;;;;6.68;4.22;;;;;;;-2.14;67.46;95369.41;5134783;27;20371;-68
2022/01/12 10:49:58;;;;;;;6.85;3.90;;;;;;;-1.67;66.04;95374.66;5136005;27;20110;-68
2022/01/12 10:52:34;;;;;;;6.70;3.90;;;;;;;-1.67;66.83;95374.66;5135169;27;20042;-68
2022/01/12 10:55:10;;;;;;;7.75;3.80;;;;;;;-1.78;66.47;95377.34;5135641;27;20023;-68
2022/01/12 10:57:39;;;;;;;9.82;4.75;;;;;;;-1.72;67.22;95383.78;5135584;27;20019;-68
2022/01/12 11:00:23;;;;;;;8.57;4.43;;;;;;;-1.47;64.99;95385.59;5135028;27;20019;-69
2022/01/12 11:02:57;;;;;;;8.13;4.63;;;;;;;-1.45;64.63;95383.31;5135090;27;20376;-69
2022/01/12 11:05:25;;;;;;;8.32;4.28;;;;;;;-1.75;63.93;95381.88;5135223;27;20026;-69
2022/01/12 11:07:51;;;;;;;6.47;3.67;;;;;;;-1.79;63.04;95373.16;5134215;27;20554;-68
2022/01/12 11:10:19;;;;;;;6.60;3.95;;;;;;;-1.61;64.70;95373.88;5134901;27;20512;-68
2022/01/12 11:12:45;;;;;;;7.18;3.70;;;;;;;-1.62;63.54;95377.66;5134526;27;20019;-68
2022/01/12 11:15:13;;;;;;;7.35;3.55;;;;;;;-1.69;62.72;95377.69;5135068;27;20029;-68
2022/01/12 11:17:40;;;;;;;5.72;3.40;;;;;;;-1.53;62.89;95371.91;5135162;27;20019;-68
2022/01/12 11:20:19;;;;;;;6.70;3.65;;;;;;;-1.35;62.26;95382.50;5134905;27;20019;-68
2022/01/12 11:22:44;;;;;;;6.80;3.67;;;;;;;-1.54;63.16;95383.72;5135033;27;20046;-68
2022/01/12 11:25:18;;;;;;;5.30;3.17;;;;;;;-1.48;63.60;95384.09;5134801;27;20452;-68
2022/01/12 11:27:44;;;;;;;5.53;3.03;;;;;;;-1.60;62.80;95375.38;5134669;27;20022;-68
2022/01/12 11:30:38;;;;;;;9.25;3.58;;;;;;;-1.37;62.82;95377.56;5134668;27;20030;-67
2022/01/12 11:33:09;;;;;;;6.05;3.67;;;;;;;-1.48;63.35;95387.50;5133678;27;20039;-68
2022/01/12 11:35:39;;;;;;;6.13;4.00;;;;;;;-1.65;63.56;95383.78;5134911;27;20106;-69
2022/01/12 11:38:05;;;;;;;6.20;3.78;;;;;;;-1.36;61.83;95389.00;5133680;27;20027;-69
2022/01/12 11:40:42;;;;;;;8.60;3.90;;;;;;;-1.58;62.26;95377.63;5133809;27;20023;-69
2022/01/12 11:43:25;;;;;;;7.05;3.47;;;;;;;-1.62;62.89;95387.53;5135120;27;20019;-69
2022/01/12 11:46:22;;;;;;;6.38;3.47;;;;;;;-1.69;62.69;95388.34;5135117;27;20045;-69
2022/01/12 11:48:53;;;;;;;6.03;3.47;;;;;;;-1.45;62.54;95388.63;5132768;27;20475;-69
2022/01/12 11:51:44;;;;;;;6.32;3.83;;;;;;;-1.62;62.89;95393.66;5134859;27;20027;-69
2022/01/12 11:54:15;;;;;;;6.78;3.60;;;;;;;-1.66;62.87;95387.56;5134494;27;20019;-70
2022/01/12 11:57:11;;;;;;;5.18;3.10;;;;;;;-1.75;61.69;95395.19;5133190;27;20030;-68
2022/01/12 11:59:55;;;;;;;7.35;3.42;;;;;;;-1.75;62.18;95397.84;5125666;27;20027;-69
2022/01/12 12:02:45;;;;;;;5.38;3.17;;;;;;;-1.65;60.12;95405.06;5134363;27;20507;-68
2022/01/12 12:05:16;;;;;;;4.50;2.63;;;;;;;-1.49;60.47;95401.22;5124164;27;20488;-68
2022/01/12 12:07:53;;;;;;;6.88;3.50;;;;;;;-1.43;61.27;95394.31;5134463;27;20094;-69
2022/01/12 12:10:21;;;;;;;6.75;3.33;;;;;;;-1.67;61.63;95398.59;5134311;27;20027;-68
2022/01/12 12:12:49;;;;;;;6.20;3.60;;;;;;;-1.28;61.62;95401.13;5134101;27;20027;-68
2022/01/12 12:15:15;;;;;;;7.43;3.97;;;;;;;-1.29;60.94;95410.25;5134032;27;20468;-68
2022/01/12 12:17:42;;;;;;;5.50;3.35;;;;;;;-1.20;59.28;95407.16;5115898;27;20031;-69
2022/01/12 12:20:13;;;;;;;5.00;3.05;;;;;;;-1.54;61.99;95397.78;5134104;27;20084;-70
2022/01/12 12:22:41;;;;;;;6.80;2.88;;;;;;;-1.76;61.82;95405.09;5134359;27;20027;-70
2022/01/12 12:25:12;;;;;;;4.40;2.92;;;;;;;-1.67;61.31;95407.34;5134244;27;20027;-69
2022/01/12 12:27:41;;;;;;;4.03;2.42;;;;;;;-1.64;62.34;95405.81;5133872;27;20084;-71
2022/01/12 12:30:16;;;;;;;5.82;3.08;;;;;;;-1.57;61.64;95405.78;5132802;28;20030;-69
2022/01/12 12:32:44;;;;;;;5.55;3.33;;;;;;;-1.26;60.94;95398.81;5134178;27;20069;-69
2022/01/12 12:35:14;;;;;;;5.82;3.28;;;;;;;-1.23;59.83;95403.41;5134644;27;20034;-69
2022/01/12 12:37:47;;;;;;;7.65;4.20;;;;;;;-1.24;59.86;95391.22;5133671;27;20468;-70
2022/01/12 12:40:12;;;;;;;7.35;4.07;;;;;;;-1.36;59.75;95395.06;5134040;27;20154;-69
2022/01/12 12:42:38;;;;;;;6.20;3.75;;;;;;;-1.52;61.57;95396.66;5134037;27;20129;-70
2022/01/12 12:45:05;;;;;;;6.55;3.85;;;;;;;-1.97;63.19;95389.91;5133448;27;20069;-69
2022/01/12 12:47:32;;;;;;;6.15;3.55;;;;;;;-1.84;63.38;95387.63;5133544;27;20023;-69
2022/01/12 12:50:01;;;;;;;7.13;3.38;;;;;;;-1.76;62.98;95404.31;5133424;27;20376;-69
2022/01/12 12:52:37;;;;;;;6.50;4.13;;;;;;;-1.68;62.23;95403.16;5132521;28;20047;-69
2022/01/12 12:55:13;;;;;;;6.85;3.60;;;;;;;-1.61;61.40;95399.72;5133591;27;20034;-70